Laois — FN4213 — position and weather

sailwx.info

Track history (hours):
 
Tides and Currents Weather Stations Pressure Air Temp Water Temp Dewpoint Dewpoint Depression Visibility Wind Speed Wind Dir Waves Ship Positions

Laois

Last reported at 2017-Sep-09 16:02 UTC. Time now 2017-Sep-26 09:32 UTC.
Position N 47°23' W 002°33'.
Warning: this ship's position is 16 days out of date.

Length 13 m.

Type: Sailing vessel. MMSI: 227519360.

Date/timePositionNaut miles runAvg speedWind from/ knotsBaromVisibWave heightAir tempDewpointWater temp
2017-Sep-09 16:02N 47°23' W 002°33'0 0.2
2017-Sep-09 15:46N 47°23' W 002°33'1 4.5
2017-Sep-09 15:29N 47°24' W 002°34'4 7.4
2017-Sep-09 14:59N 47°23' W 002°39'4 7.4
2017-Sep-09 14:29N 47°22' W 002°45'3 7.2
2017-Sep-09 14:00N 47°22' W 002°50'2 4.1
2017-Sep-09 13:29N 47°21' W 002°52'0 0.0
2017-Sep-09 10:52N 47°21' W 002°52'0 0.3
2017-Sep-09 10:30N 47°21' W 002°52'4 4.8
2017-Sep-09 09:44N 47°22' W 002°47'2 6.5
2017-Sep-09 09:29N 47°23' W 002°45'2 3.7
2017-Sep-09 08:59N 47°22' W 002°43'3 5.8
2017-Sep-09 08:23N 47°24' W 002°38'3 6.6
2017-Sep-09 08:00N 47°25' W 002°35'2 3.6
2017-Sep-09 07:28N 47°24' W 002°33'  
Track history (hours):
 
Tides and Currents Weather Stations Pressure Air Temp Water Temp Dewpoint Dewpoint Depression Visibility Wind Speed Wind Dir Waves Ship Positions

Laois

Last reported at 2017-Sep-09 16:02 UTC. Time now 2017-Sep-26 09:32 UTC.
Position N 47°23' W 002°33'.
Warning: this ship's position is 16 days out of date.

Length 13 m.

Type: Sailing vessel. MMSI: 227519360.

Date/timePositionNaut miles runAvg speedWind from/ knotsBaromVisibWave heightAir tempDewpointWater temp
2017-Sep-09 16:02N 47°23' W 002°33'0 0.2
2017-Sep-09 15:46N 47°23' W 002°33'1 4.5
2017-Sep-09 15:29N 47°24' W 002°34'4 7.4
2017-Sep-09 14:59N 47°23' W 002°39'4 7.4
2017-Sep-09 14:29N 47°22' W 002°45'3 7.2
2017-Sep-09 14:00N 47°22' W 002°50'2 4.1
2017-Sep-09 13:29N 47°21' W 002°52'0 0.0
2017-Sep-09 10:52N 47°21' W 002°52'0 0.3
2017-Sep-09 10:30N 47°21' W 002°52'4 4.8
2017-Sep-09 09:44N 47°22' W 002°47'2 6.5
2017-Sep-09 09:29N 47°23' W 002°45'2 3.7
2017-Sep-09 08:59N 47°22' W 002°43'3 5.8
2017-Sep-09 08:23N 47°24' W 002°38'3 6.6
2017-Sep-09 08:00N 47°25' W 002°35'2 3.6
2017-Sep-09 07:28N 47°24' W 002°33'  

Dump ship's entire track history